createdAt,value
2022-08-24T00:00:46.231Z,99.90
2022-08-24T00:03:14.300Z,99.90
2022-08-24T00:05:42.319Z,99.90
2022-08-24T00:08:10.340Z,99.90
2022-08-24T00:10:38.536Z,99.90
2022-08-24T00:13:06.849Z,99.90
2022-08-24T00:15:36.437Z,99.90
2022-08-24T00:18:04.678Z,99.90
2022-08-24T00:20:33.400Z,99.90
2022-08-24T00:23:01.737Z,99.90
2022-08-24T00:25:29.684Z,99.90
2022-08-24T00:27:57.760Z,99.90
2022-08-24T00:30:25.903Z,99.90
2022-08-24T00:32:55.415Z,99.90
2022-08-24T00:35:24.451Z,99.90
2022-08-24T00:37:53.434Z,99.90
2022-08-24T00:40:24.329Z,99.90
2022-08-24T00:42:52.871Z,99.90
2022-08-24T00:45:22.068Z,99.90
2022-08-24T00:47:59.001Z,99.90
2022-08-24T00:50:32.747Z,99.90
2022-08-24T00:53:04.554Z,99.90
2022-08-24T00:55:36.125Z,99.90
2022-08-24T00:58:08.011Z,99.90
2022-08-24T01:00:45.495Z,99.90
2022-08-24T01:03:18.612Z,99.90
2022-08-24T01:05:46.979Z,99.90
2022-08-24T01:08:16.993Z,99.90
2022-08-24T01:10:47.728Z,99.90
2022-08-24T01:13:16.721Z,99.90
2022-08-24T01:15:48.855Z,99.90
2022-08-24T01:18:39.174Z,99.90
2022-08-24T01:21:15.537Z,99.90
2022-08-24T01:23:47.865Z,99.90
2022-08-24T01:26:20.283Z,99.90
2022-08-24T01:28:51.893Z,99.90
2022-08-24T01:31:22.188Z,99.90
2022-08-24T01:33:51.626Z,99.90
2022-08-24T01:36:28.389Z,99.90
2022-08-24T01:39:02.174Z,99.90
2022-08-24T01:41:30.267Z,99.90
2022-08-24T01:43:59.216Z,99.90
2022-08-24T01:46:27.959Z,99.90
2022-08-24T01:48:58.809Z,99.90
2022-08-24T01:51:27.336Z,99.90
2022-08-24T01:53:55.278Z,99.90
2022-08-24T01:56:24.639Z,99.90
2022-08-24T01:58:52.987Z,99.90
2022-08-24T02:01:21.231Z,99.90
2022-08-24T02:03:52.003Z,99.90
2022-08-24T02:06:20.108Z,99.90
2022-08-24T02:08:48.169Z,99.90
2022-08-24T02:11:16.168Z,99.90
2022-08-24T02:13:45.877Z,99.90
2022-08-24T02:16:14.267Z,99.90
2022-08-24T02:18:42.872Z,99.90
2022-08-24T02:21:11.957Z,99.90
2022-08-24T02:23:41.400Z,99.90
2022-08-24T02:26:11.494Z,99.90
2022-08-24T02:28:40.661Z,99.90
2022-08-24T02:31:11.940Z,99.90
2022-08-24T02:33:40.835Z,99.90
2022-08-24T02:36:25.290Z,99.90
2022-08-24T02:38:54.849Z,99.90
2022-08-24T02:41:25.772Z,99.90
2022-08-24T02:43:54.346Z,99.90
2022-08-24T02:46:27.861Z,99.90
2022-08-24T02:49:03.132Z,99.90
2022-08-24T02:51:44.821Z,99.90
2022-08-24T02:54:17.355Z,99.90
2022-08-24T02:56:45.379Z,99.90
2022-08-24T02:59:14.024Z,99.90
2022-08-24T03:01:43.800Z,99.90
2022-08-24T03:04:13.157Z,99.90
2022-08-24T03:06:41.171Z,99.90
2022-08-24T03:09:09.655Z,99.90
2022-08-24T03:11:38.250Z,99.90
2022-08-24T03:14:06.559Z,99.90
2022-08-24T03:16:36.660Z,99.90
2022-08-24T03:19:06.048Z,99.90
2022-08-24T03:21:34.312Z,99.90
2022-08-24T03:24:02.441Z,99.90
2022-08-24T03:26:30.476Z,99.90
2022-08-24T03:28:59.100Z,99.90
2022-08-24T03:31:28.180Z,99.90
2022-08-24T03:33:56.138Z,99.90
2022-08-24T03:36:25.543Z,99.90
2022-08-24T03:38:53.500Z,99.90
2022-08-24T03:41:21.484Z,99.90
2022-08-24T03:43:49.742Z,99.90
2022-08-24T03:46:21.390Z,99.90
2022-08-24T03:48:50.415Z,99.90
2022-08-24T03:51:21.403Z,99.90
2022-08-24T03:53:51.497Z,99.90
2022-08-24T03:56:19.717Z,99.90
2022-08-24T03:58:48.651Z,99.90
2022-08-24T04:01:18.020Z,99.90
2022-08-24T04:03:48.963Z,99.90
2022-08-24T04:06:22.987Z,99.90
2022-08-24T04:08:55.472Z,99.90
2022-08-24T04:11:25.669Z,99.90
2022-08-24T04:13:56.548Z,99.90
2022-08-24T04:16:25.804Z,99.90
2022-08-24T04:18:53.947Z,99.90
2022-08-24T04:21:25.101Z,99.90
2022-08-24T04:23:54.935Z,99.90
2022-08-24T04:26:44.077Z,99.90
2022-08-24T04:29:14.756Z,99.90
2022-08-24T04:31:43.930Z,99.90
2022-08-24T04:34:13.459Z,99.90
2022-08-24T04:36:42.410Z,99.90
2022-08-24T04:39:11.992Z,99.90
2022-08-24T04:41:41.796Z,99.90
2022-08-24T04:44:09.970Z,99.90
2022-08-24T04:46:38.862Z,99.90
2022-08-24T04:49:06.875Z,99.90
2022-08-24T04:51:36.590Z,99.90
2022-08-24T04:54:06.372Z,99.90
2022-08-24T04:56:36.479Z,99.90
2022-08-24T04:59:05.533Z,99.90
2022-08-24T05:01:33.768Z,99.90
2022-08-24T05:04:02.641Z,99.90
2022-08-24T05:06:32.378Z,99.90
2022-08-24T05:09:01.416Z,99.90
2022-08-24T05:11:29.528Z,99.90
2022-08-24T05:14:00.061Z,99.90
2022-08-24T05:16:28.759Z,99.90
2022-08-24T05:19:00.333Z,99.90
2022-08-24T05:21:28.524Z,99.90
2022-08-24T05:23:56.431Z,99.90
2022-08-24T05:26:26.134Z,99.90
2022-08-24T05:28:56.209Z,99.90
2022-08-24T05:31:27.830Z,99.90
2022-08-24T05:33:56.543Z,99.90
2022-08-24T05:36:26.943Z,99.90
2022-08-24T05:38:58.296Z,99.90
2022-08-24T05:41:26.912Z,99.90
2022-08-24T05:43:55.625Z,99.90
2022-08-24T05:46:25.004Z,99.90
2022-08-24T05:48:53.554Z,99.90
2022-08-24T05:51:22.108Z,99.90
2022-08-24T05:53:52.770Z,99.90
2022-08-24T05:56:21.373Z,99.90
2022-08-24T05:58:50.321Z,99.90
2022-08-24T06:01:21.620Z,99.90
2022-08-24T06:03:52.503Z,99.90
2022-08-24T06:06:21.891Z,99.90
2022-08-24T06:08:51.840Z,99.90
2022-08-24T06:11:29.887Z,99.90
2022-08-24T06:14:01.049Z,99.90
2022-08-24T06:16:29.524Z,99.90
2022-08-24T06:18:58.904Z,99.90
2022-08-24T06:21:28.661Z,99.90
2022-08-24T06:23:57.679Z,99.90
2022-08-24T06:26:42.964Z,99.90
2022-08-24T06:29:15.122Z,99.90
2022-08-24T06:31:46.635Z,99.90
2022-08-24T06:34:19.117Z,99.90
2022-08-24T06:36:47.646Z,99.90
2022-08-24T06:39:15.705Z,99.90
2022-08-24T06:41:45.152Z,99.90
2022-08-24T06:44:13.237Z,99.90
2022-08-24T06:46:41.328Z,99.90
2022-08-24T06:49:09.593Z,99.90
2022-08-24T06:51:39.035Z,99.90
2022-08-24T06:54:07.163Z,99.90
2022-08-24T06:56:37.340Z,99.90
2022-08-24T06:59:05.361Z,99.90
2022-08-24T07:01:33.758Z,99.90
2022-08-24T07:04:02.254Z,99.90
2022-08-24T07:06:30.343Z,99.90
2022-08-24T07:08:59.777Z,99.90
2022-08-24T07:11:27.914Z,99.90
2022-08-24T07:13:55.856Z,99.90
2022-08-24T07:16:24.272Z,99.90
2022-08-24T07:18:53.794Z,99.90
2022-08-24T07:21:22.102Z,99.90
2022-08-24T07:23:50.886Z,99.90
2022-08-24T07:26:23.003Z,99.90
2022-08-24T07:28:51.506Z,99.90
2022-08-24T07:31:21.099Z,99.90
2022-08-24T07:33:49.369Z,99.90
2022-08-24T07:36:22.619Z,99.90
2022-08-24T07:38:52.794Z,99.90
2022-08-24T07:41:51.548Z,99.90
2022-08-24T07:44:12.548Z,99.90
2022-08-24T07:46:41.821Z,99.90
2022-08-24T07:49:28.075Z,99.90
2022-08-24T07:51:59.183Z,99.90
2022-08-24T07:54:28.744Z,99.90
2022-08-24T07:57:02.176Z,99.90
2022-08-24T07:59:30.145Z,99.90
2022-08-24T08:01:58.872Z,99.90
2022-08-24T08:04:27.354Z,99.90
2022-08-24T08:09:24.596Z,99.90
2022-08-24T08:11:52.592Z,99.90
2022-08-24T08:14:21.973Z,99.90
2022-08-24T08:16:49.944Z,99.90
2022-08-24T08:19:18.283Z,99.90
2022-08-24T08:22:07.486Z,99.90
2022-08-24T08:24:36.028Z,99.90
2022-08-24T08:27:05.882Z,99.90
2022-08-24T08:29:36.478Z,99.60
2022-08-24T08:32:04.914Z,99.20
2022-08-24T08:34:32.982Z,98.70
2022-08-24T08:37:02.983Z,98.40
2022-08-24T08:39:31.575Z,97.90
2022-08-24T08:42:31.566Z,97.20
2022-08-24T08:45:18.325Z,96.80
2022-08-24T08:48:27.835Z,96.70
2022-08-24T08:51:46.945Z,96.00
2022-08-24T08:54:44.299Z,95.60
2022-08-24T08:57:36.436Z,95.10
2022-08-24T09:00:16.284Z,94.50
2022-08-24T09:03:14.267Z,93.80
2022-08-24T09:06:13.700Z,93.00
2022-08-24T09:09:03.135Z,91.90
2022-08-24T09:11:41.358Z,91.40
2022-08-24T09:14:33.796Z,90.80
2022-08-24T09:17:17.013Z,89.60
2022-08-24T09:20:00.509Z,88.80
2022-08-24T09:22:28.616Z,87.20
2022-08-24T09:25:26.737Z,84.90
2022-08-24T09:28:12.497Z,81.80
2022-08-24T09:31:03.539Z,76.30
2022-08-24T09:33:38.807Z,70.50
2022-08-24T09:36:12.426Z,61.40
2022-08-24T09:38:59.929Z,53.50
2022-08-24T09:42:01.255Z,42.00
2022-08-24T09:45:01.817Z,32.00
2022-08-24T09:47:59.960Z,24.90
2022-08-24T09:50:51.195Z,19.50
2022-08-24T09:53:54.734Z,16.50
2022-08-24T09:56:39.810Z,13.00
2022-08-24T09:59:32.985Z,10.80
2022-08-24T10:02:30.331Z,9.70
2022-08-24T10:05:13.519Z,8.10
2022-08-24T10:07:52.030Z,7.30
2022-08-24T10:10:33.126Z,6.40
2022-08-24T10:13:15.257Z,5.70
2022-08-24T10:15:48.935Z,6.00
2022-08-24T10:18:35.208Z,5.10
2022-08-24T10:21:25.492Z,4.70
2022-08-24T10:24:15.735Z,4.20
2022-08-24T10:27:04.666Z,3.90
2022-08-24T10:29:46.803Z,3.00
2022-08-24T10:32:27.232Z,2.90
2022-08-24T10:35:04.363Z,2.90
2022-08-24T10:37:52.018Z,2.40
2022-08-24T10:40:34.896Z,2.80
2022-08-24T10:43:35.602Z,2.80
2022-08-24T10:46:36.578Z,3.00
2022-08-24T10:49:57.277Z,2.80
2022-08-24T10:53:15.506Z,2.60
2022-08-24T10:55:45.707Z,2.10
2022-08-24T10:58:41.560Z,2.10
2022-08-24T11:01:21.308Z,2.20
2022-08-24T11:03:53.421Z,2.20
2022-08-24T11:06:24.321Z,2.40
2022-08-24T11:08:56.145Z,2.90
2022-08-24T11:11:29.540Z,2.70
2022-08-24T11:14:00.417Z,2.70
2022-08-24T11:16:32.475Z,2.70
2022-08-24T11:19:02.600Z,2.90
2022-08-24T11:21:41.687Z,3.30
2022-08-24T11:24:14.091Z,3.40
2022-08-24T11:26:55.982Z,4.30
2022-08-24T11:29:27.956Z,4.90
2022-08-24T11:31:56.387Z,5.40
2022-08-24T11:34:34.068Z,5.90
2022-08-24T11:37:02.595Z,6.40
2022-08-24T11:39:35.534Z,7.00
2022-08-24T11:42:15.551Z,7.70
2022-08-24T11:44:50.750Z,8.20
2022-08-24T11:47:35.238Z,8.60
2022-08-24T11:50:15.532Z,9.40
2022-08-24T11:52:53.925Z,10.10
2022-08-24T11:55:30.656Z,10.80
2022-08-24T11:58:29.184Z,11.50
2022-08-24T12:01:03.836Z,11.90
2022-08-24T12:03:47.369Z,12.30
2022-08-24T12:06:32.309Z,12.90
2022-08-24T12:09:06.744Z,13.40
2022-08-24T12:11:44.274Z,13.60
2022-08-24T12:14:21.910Z,13.60
2022-08-24T12:16:56.597Z,13.90
2022-08-24T12:19:29.792Z,13.90
2022-08-24T12:22:03.231Z,14.20
2022-08-24T12:24:35.266Z,14.30
2022-08-24T12:27:10.650Z,14.50
2022-08-24T12:29:44.612Z,14.50
2022-08-24T12:32:16.573Z,14.30
2022-08-24T12:34:55.874Z,14.20
2022-08-24T12:37:30.871Z,14.10
2022-08-24T12:40:08.769Z,14.00
2022-08-24T12:42:48.708Z,14.00
2022-08-24T12:45:23.161Z,14.00
2022-08-24T12:48:03.727Z,13.80
2022-08-24T12:50:40.980Z,13.60
2022-08-24T12:53:30.260Z,13.10
2022-08-24T12:56:40.087Z,12.70
2022-08-24T12:59:17.371Z,12.70
2022-08-24T13:01:49.657Z,12.80
2022-08-24T13:04:32.032Z,12.70
2022-08-24T13:07:03.421Z,12.50
2022-08-24T13:09:34.788Z,12.50
2022-08-24T13:12:36.247Z,12.40
2022-08-24T13:15:28.058Z,12.20
2022-08-24T13:18:03.287Z,12.30
2022-08-24T13:20:56.324Z,12.20
2022-08-24T13:23:27.793Z,12.10
2022-08-24T13:25:59.225Z,12.20
2022-08-24T13:28:45.731Z,12.00
2022-08-24T13:31:25.801Z,11.80
2022-08-24T13:34:00.090Z,11.90
2022-08-24T13:39:59.887Z,11.40
2022-08-24T13:42:44.958Z,11.40
2022-08-24T13:45:26.847Z,11.20
2022-08-24T13:48:14.065Z,11.30
2022-08-24T13:50:49.794Z,11.10
2022-08-24T13:53:49.747Z,10.70
2022-08-24T13:56:48.642Z,10.40
2022-08-24T13:59:37.218Z,10.10
2022-08-24T14:02:21.130Z,10.20
2022-08-24T14:04:56.288Z,10.20
2022-08-24T14:07:28.030Z,10.10
2022-08-24T14:10:07.968Z,10.10
2022-08-24T14:12:52.406Z,10.20
2022-08-24T14:15:29.575Z,10.20
2022-08-24T14:18:10.088Z,10.00
2022-08-24T14:20:59.949Z,9.80
2022-08-24T14:23:50.082Z,9.80
2022-08-24T14:26:57.788Z,9.60
2022-08-24T14:29:40.555Z,9.30
2022-08-24T14:32:40.589Z,9.10
2022-08-24T14:35:28.989Z,9.20
2022-08-24T14:38:12.468Z,9.30
2022-08-24T14:40:56.235Z,9.20
2022-08-24T14:43:31.281Z,9.00
2022-08-24T14:46:10.425Z,9.20
2022-08-24T14:48:50.660Z,9.20
2022-08-24T14:51:39.138Z,9.10
2022-08-24T14:54:23.731Z,8.90
2022-08-24T14:57:06.384Z,8.80
2022-08-24T14:59:47.875Z,9.20
2022-08-24T15:03:02.893Z,9.10
2022-08-24T15:05:40.571Z,9.20
2022-08-24T15:08:11.783Z,9.50
2022-08-24T15:10:51.167Z,9.90
2022-08-24T15:13:28.570Z,9.90
2022-08-24T15:16:02.372Z,9.80
2022-08-24T15:18:39.084Z,9.80
2022-08-24T15:21:17.862Z,9.70
2022-08-24T15:24:01.163Z,9.70
2022-08-24T15:26:39.312Z,9.00
2022-08-24T15:29:15.161Z,8.70
2022-08-24T15:31:55.418Z,8.70
2022-08-24T15:34:35.988Z,8.60
2022-08-24T15:37:04.020Z,8.70
2022-08-24T15:39:32.831Z,8.70
2022-08-24T15:42:05.308Z,8.80
2022-08-24T15:44:33.733Z,8.70
2022-08-24T15:47:04.896Z,8.90
2022-08-24T15:49:39.514Z,10.00
2022-08-24T15:52:27.510Z,9.60
2022-08-24T15:55:01.170Z,9.80
2022-08-24T15:57:31.857Z,10.10
2022-08-24T16:00:09.320Z,10.20
2022-08-24T16:02:38.749Z,10.30
2022-08-24T16:05:20.659Z,10.10
2022-08-24T16:08:11.462Z,10.10
2022-08-24T16:10:42.080Z,10.30
2022-08-24T16:13:16.303Z,10.60
2022-08-24T16:15:49.590Z,10.60
2022-08-24T16:18:20.226Z,10.70
2022-08-24T16:20:50.977Z,10.80
2022-08-24T16:23:26.788Z,10.90
2022-08-24T16:26:21.302Z,10.90
2022-08-24T16:28:51.374Z,10.80
2022-08-24T16:31:44.321Z,10.90
2022-08-24T16:34:20.677Z,11.20
2022-08-24T16:36:50.081Z,11.30
2022-08-24T16:39:18.053Z,11.30
2022-08-24T16:41:46.052Z,11.50
2022-08-24T16:44:14.128Z,11.50
2022-08-24T16:46:42.865Z,11.70
2022-08-24T16:49:16.077Z,11.70
2022-08-24T16:51:45.331Z,11.80
2022-08-24T16:54:15.056Z,12.10
2022-08-24T16:56:43.609Z,12.20
2022-08-24T16:59:14.667Z,12.30
2022-08-24T17:01:42.657Z,12.30
2022-08-24T17:04:10.722Z,12.50
2022-08-24T17:06:38.788Z,12.80
2022-08-24T17:09:06.731Z,12.80
2022-08-24T17:11:38.182Z,13.20
2022-08-24T17:14:06.981Z,13.10
2022-08-24T17:16:35.120Z,13.20
2022-08-24T17:19:07.839Z,13.20
2022-08-24T17:21:36.101Z,13.30
2022-08-24T17:24:04.436Z,13.40
2022-08-24T17:26:32.963Z,13.60
2022-08-24T17:29:05.312Z,14.10
2022-08-24T17:31:33.802Z,13.50
2022-08-24T17:34:01.885Z,13.50
2022-08-24T17:36:32.228Z,13.60
2022-08-24T17:39:01.349Z,13.60
2022-08-24T17:41:29.637Z,13.70
2022-08-24T17:43:58.479Z,13.90
2022-08-24T17:46:29.469Z,14.20
2022-08-24T17:48:59.385Z,14.30
2022-08-24T17:51:27.375Z,14.60
2022-08-24T17:53:55.367Z,14.70
2022-08-24T17:56:23.442Z,14.90
2022-08-24T17:59:08.855Z,15.10
2022-08-24T18:01:38.456Z,15.30
2022-08-24T18:04:06.593Z,15.50
2022-08-24T18:06:35.073Z,15.60
2022-08-24T18:09:07.327Z,15.80
2022-08-24T18:11:35.300Z,16.00
2022-08-24T18:14:03.423Z,16.10
2022-08-24T18:16:32.185Z,16.50
2022-08-24T18:19:02.484Z,16.80
2022-08-24T18:21:30.529Z,16.90
2022-08-24T18:24:01.377Z,17.10
2022-08-24T18:26:31.229Z,17.20
2022-08-24T18:29:07.778Z,17.40
2022-08-24T18:31:36.536Z,17.80
2022-08-24T18:34:05.962Z,18.30
2022-08-24T18:36:33.964Z,18.90
2022-08-24T18:39:06.522Z,19.60
2022-08-24T18:41:38.444Z,19.80
2022-08-24T18:44:08.694Z,19.80
2022-08-24T18:46:43.973Z,20.00
2022-08-24T18:49:13.476Z,20.10
2022-08-24T18:51:42.060Z,20.70
2022-08-24T18:54:14.059Z,20.90
2022-08-24T18:56:42.096Z,21.00
2022-08-24T18:59:12.411Z,21.00
2022-08-24T19:01:54.707Z,21.20
2022-08-24T19:04:29.439Z,21.40
2022-08-24T19:07:01.303Z,22.00
2022-08-24T19:09:33.998Z,22.50
2022-08-24T19:12:02.517Z,22.70
2022-08-24T19:14:30.553Z,22.90
2022-08-24T19:16:58.612Z,23.10
2022-08-24T19:19:28.000Z,23.50
2022-08-24T19:21:56.256Z,23.60
2022-08-24T19:24:27.504Z,23.60
2022-08-24T19:26:55.691Z,23.60
2022-08-24T19:29:54.002Z,23.90
2022-08-24T19:32:22.872Z,24.30
2022-08-24T19:34:53.420Z,24.40
2022-08-24T19:37:22.366Z,24.50
2022-08-24T19:39:51.165Z,24.80
2022-08-24T19:42:19.555Z,25.10
2022-08-24T19:45:05.005Z,25.50
2022-08-24T19:47:34.505Z,25.60
2022-08-24T19:50:07.751Z,25.90
2022-08-24T19:52:36.954Z,26.00
2022-08-24T19:55:06.957Z,26.10
2022-08-24T19:57:44.846Z,26.20
2022-08-24T20:00:26.650Z,26.40
2022-08-24T20:02:56.124Z,26.50
2022-08-24T20:05:28.887Z,26.50
2022-08-24T20:07:57.559Z,26.60
2022-08-24T20:10:26.489Z,26.70
2022-08-24T20:12:54.763Z,27.10
2022-08-24T20:15:24.862Z,27.50
2022-08-24T20:17:53.756Z,27.80
2022-08-24T20:20:23.265Z,28.00
2022-08-24T20:22:52.668Z,28.10
2022-08-24T20:25:21.031Z,28.20
2022-08-24T20:27:58.081Z,28.30
2022-08-24T20:30:38.609Z,28.50
2022-08-24T20:33:10.821Z,28.90
2022-08-24T20:35:40.233Z,29.10
2022-08-24T20:38:09.680Z,29.10
2022-08-24T20:40:37.825Z,29.20
2022-08-24T20:43:07.071Z,29.50
2022-08-24T20:45:35.793Z,30.00
2022-08-24T20:48:04.914Z,30.30
2022-08-24T20:50:34.458Z,30.40
2022-08-24T20:53:02.459Z,30.60
2022-08-24T20:55:32.818Z,30.80
2022-08-24T20:58:03.306Z,30.90
2022-08-24T21:00:31.514Z,31.10
2022-08-24T21:02:59.640Z,31.50
2022-08-24T21:05:27.595Z,31.60
2022-08-24T21:07:57.747Z,32.10
2022-08-24T21:10:27.286Z,32.20
2022-08-24T21:12:56.727Z,32.40
2022-08-24T21:15:24.726Z,32.20
2022-08-24T21:17:52.765Z,32.30
2022-08-24T21:20:21.921Z,32.10
2022-08-24T21:22:50.181Z,31.90
2022-08-24T21:25:18.507Z,31.80
2022-08-24T21:27:49.192Z,31.60
2022-08-24T21:30:22.287Z,31.50
2022-08-24T21:33:07.916Z,31.20
2022-08-24T21:35:37.266Z,31.10
2022-08-24T21:38:06.027Z,31.10
2022-08-24T21:40:36.129Z,31.00
2022-08-24T21:43:14.528Z,31.10
2022-08-24T21:45:44.902Z,31.00
2022-08-24T21:48:13.004Z,31.00
2022-08-24T21:50:40.955Z,31.20
2022-08-24T21:53:09.150Z,31.30
2022-08-24T21:55:37.799Z,31.30
2022-08-24T21:58:06.033Z,31.50
2022-08-24T22:00:35.222Z,31.60
2022-08-24T22:03:05.177Z,31.70
2022-08-24T22:05:33.416Z,31.60
2022-08-24T22:08:01.414Z,31.60
2022-08-24T22:10:30.749Z,31.80
2022-08-24T22:13:03.822Z,32.00
2022-08-24T22:15:33.646Z,32.10
2022-08-24T22:18:01.777Z,32.20
2022-08-24T22:20:31.046Z,32.40
2022-08-24T22:22:59.396Z,32.70
2022-08-24T22:25:27.499Z,32.80
2022-08-24T22:27:55.490Z,33.00
2022-08-24T22:30:23.587Z,33.00
2022-08-24T22:32:51.665Z,33.10
2022-08-24T22:35:19.738Z,33.20
2022-08-24T22:37:49.108Z,33.20
2022-08-24T22:40:17.388Z,33.30
2022-08-24T22:42:47.086Z,33.30
2022-08-24T22:45:15.637Z,33.30
2022-08-24T22:47:43.587Z,33.20
2022-08-24T22:50:11.728Z,33.30
2022-08-24T22:52:39.807Z,33.40
2022-08-24T22:55:10.525Z,33.40
2022-08-24T22:57:38.524Z,33.40
2022-08-24T23:00:07.889Z,33.30
2022-08-24T23:02:37.280Z,33.40
2022-08-24T23:05:06.101Z,33.40
2022-08-24T23:07:35.347Z,33.50
2022-08-24T23:10:03.715Z,33.60
2022-08-24T23:12:33.032Z,33.80
2022-08-24T23:15:01.299Z,34.10
2022-08-24T23:17:29.256Z,34.20
2022-08-24T23:20:05.698Z,34.40
2022-08-24T23:22:35.833Z,34.70
2022-08-24T23:25:05.095Z,34.90
2022-08-24T23:27:38.160Z,35.10
2022-08-24T23:30:09.423Z,35.50
2022-08-24T23:32:37.546Z,35.70
2022-08-24T23:35:06.456Z,35.90
2022-08-24T23:37:34.500Z,36.30
2022-08-24T23:40:03.149Z,36.50
2022-08-24T23:42:31.084Z,36.70
2022-08-24T23:45:00.407Z,37.50
2022-08-24T23:47:28.960Z,36.90
2022-08-24T23:49:57.068Z,36.90
2022-08-24T23:52:28.397Z,36.90
2022-08-24T23:55:15.623Z,36.90
2022-08-24T23:57:46.706Z,37.00
